createdAt,value
2018-12-17T00:00:29.379Z,0.89
2018-12-17T00:02:57.068Z,0.89
2018-12-17T00:05:27.430Z,0.92
2018-12-17T00:07:55.077Z,0.94
2018-12-17T00:10:22.900Z,0.98
2018-12-17T00:12:50.821Z,1.01
2018-12-17T00:15:18.325Z,1.02
2018-12-17T00:17:46.001Z,1.04
2018-12-17T00:20:13.658Z,1.06
2018-12-17T00:22:41.193Z,1.05
2018-12-17T00:25:09.441Z,1.07
2018-12-17T00:27:36.918Z,1.10
2018-12-17T00:30:06.079Z,1.12
2018-12-17T00:32:33.802Z,1.13
2018-12-17T00:35:01.322Z,1.13
2018-12-17T00:37:28.788Z,1.15
2018-12-17T00:39:56.845Z,1.16
2018-12-17T00:42:24.311Z,1.16
2018-12-17T00:44:51.805Z,1.19
2018-12-17T00:47:19.281Z,1.19
2018-12-17T00:49:47.445Z,1.20
2018-12-17T00:52:14.925Z,1.21
2018-12-17T00:54:43.295Z,1.23
2018-12-17T00:57:10.841Z,1.25
2018-12-17T00:59:38.809Z,1.19
2018-12-17T01:02:06.265Z,1.19
2018-12-17T01:04:33.721Z,1.22
2018-12-17T01:07:01.656Z,1.22
2018-12-17T01:09:29.288Z,1.20
2018-12-17T01:11:57.086Z,1.19
2018-12-17T01:14:25.079Z,1.17
2018-12-17T01:16:52.581Z,1.17
2018-12-17T01:19:20.093Z,1.10
2018-12-17T01:21:47.817Z,1.13
2018-12-17T01:24:16.169Z,1.14
2018-12-17T01:26:43.685Z,1.17
2018-12-17T01:29:11.332Z,1.16
2018-12-17T01:31:38.790Z,1.11
2018-12-17T01:34:06.299Z,1.05
2018-12-17T01:36:33.899Z,1.10
2018-12-17T01:39:01.379Z,1.10
2018-12-17T01:41:28.895Z,1.09
2018-12-17T01:44:03.390Z,1.08
2018-12-17T01:46:30.832Z,1.08
2018-12-17T01:48:58.377Z,1.04
2018-12-17T01:51:25.879Z,1.07
2018-12-17T01:54:00.826Z,1.11
2018-12-17T01:56:28.364Z,1.11
2018-12-17T01:58:56.203Z,1.11
2018-12-17T02:01:23.773Z,1.05
2018-12-17T02:03:51.301Z,1.03
2018-12-17T02:06:18.828Z,1.06
2018-12-17T02:08:46.775Z,1.03
2018-12-17T02:11:14.412Z,1.04
2018-12-17T02:13:42.773Z,0.99
2018-12-17T02:16:10.257Z,1.06
2018-12-17T02:18:37.720Z,1.04
2018-12-17T02:21:05.191Z,1.10
2018-12-17T02:23:33.314Z,1.10
2018-12-17T02:26:00.807Z,1.09
2018-12-17T02:28:28.280Z,1.07
2018-12-17T02:30:55.757Z,1.04
2018-12-17T02:33:23.273Z,1.03
2018-12-17T02:35:51.557Z,1.07
2018-12-17T02:38:19.152Z,1.05
2018-12-17T02:40:46.659Z,1.06
2018-12-17T02:43:14.357Z,1.07
2018-12-17T02:45:41.814Z,1.04
2018-12-17T02:48:09.326Z,1.02
2018-12-17T02:50:36.797Z,1.01
2018-12-17T02:53:04.335Z,1.02
2018-12-17T02:55:31.804Z,0.95
2018-12-17T02:57:59.268Z,1.03
2018-12-17T03:00:26.745Z,1.01
2018-12-17T03:02:54.229Z,0.98
2018-12-17T03:05:21.737Z,0.97
2018-12-17T03:07:49.216Z,0.95
2018-12-17T03:10:17.500Z,0.97
2018-12-17T03:12:44.975Z,0.96
2018-12-17T03:15:12.498Z,0.93
2018-12-17T03:17:40.002Z,0.98
2018-12-17T03:20:08.019Z,0.91
2018-12-17T03:22:35.484Z,0.84
2018-12-17T03:25:04.508Z,0.85
2018-12-17T03:27:32.081Z,0.81
2018-12-17T03:29:59.589Z,0.82
2018-12-17T03:32:27.060Z,0.84
2018-12-17T03:34:54.539Z,0.84
2018-12-17T03:37:22.025Z,0.91
2018-12-17T03:39:49.531Z,0.95
2018-12-17T03:42:16.995Z,0.96
2018-12-17T03:44:44.481Z,0.91
2018-12-17T03:47:11.935Z,0.87
2018-12-17T03:49:40.340Z,0.92
2018-12-17T03:52:08.047Z,0.94
2018-12-17T03:54:35.498Z,0.92
2018-12-17T03:57:03.886Z,0.88
2018-12-17T03:59:31.457Z,0.87
2018-12-17T04:01:59.633Z,0.91
2018-12-17T04:04:27.211Z,0.93
2018-12-17T04:06:54.679Z,0.95
2018-12-17T04:09:22.134Z,1.01
2018-12-17T04:11:49.648Z,0.96
2018-12-17T04:14:17.123Z,0.97
2018-12-17T04:16:44.707Z,0.94
2018-12-17T04:19:12.194Z,0.93
2018-12-17T04:21:39.833Z,0.98
2018-12-17T04:24:07.341Z,1.02
2018-12-17T04:26:34.834Z,1.00
2018-12-17T04:29:06.754Z,1.00
2018-12-17T04:31:31.837Z,1.00
2018-12-17T04:33:59.879Z,0.99
2018-12-17T04:36:27.412Z,1.02
2018-12-17T04:38:54.902Z,1.01
2018-12-17T04:41:22.360Z,1.06
2018-12-17T04:43:49.853Z,0.98
2018-12-17T04:46:18.225Z,1.00
2018-12-17T04:48:45.713Z,1.02
2018-12-17T04:51:13.202Z,1.05
2018-12-17T04:53:40.693Z,1.04
2018-12-17T04:56:08.166Z,1.03
2018-12-17T04:58:37.227Z,0.99
2018-12-17T05:01:04.804Z,1.08
2018-12-17T05:03:32.309Z,1.09
2018-12-17T05:05:59.825Z,1.09
2018-12-17T05:08:27.320Z,1.11
2018-12-17T05:10:54.840Z,1.09
2018-12-17T05:13:22.340Z,1.10
2018-12-17T05:15:49.807Z,1.12
2018-12-17T05:18:17.291Z,1.08
2018-12-17T05:20:44.736Z,1.09
2018-12-17T05:23:12.269Z,1.09
2018-12-17T05:25:39.768Z,1.03
2018-12-17T05:28:07.345Z,1.08
2018-12-17T05:30:34.854Z,1.13
2018-12-17T05:33:03.065Z,1.14
2018-12-17T05:35:30.522Z,1.16
2018-12-17T05:37:58.871Z,1.14
2018-12-17T05:40:26.325Z,1.12
2018-12-17T05:42:53.789Z,1.12
2018-12-17T05:45:21.305Z,1.10
2018-12-17T05:47:48.751Z,1.14
2018-12-17T05:50:16.250Z,1.14
2018-12-17T05:52:43.820Z,1.12
2018-12-17T05:55:11.295Z,1.13
2018-12-17T05:57:38.828Z,1.14
2018-12-17T06:00:07.724Z,1.10
2018-12-17T06:02:35.257Z,1.12
2018-12-17T06:05:02.783Z,1.14
2018-12-17T06:07:30.946Z,1.14
2018-12-17T06:09:58.407Z,1.18
2018-12-17T06:12:25.888Z,1.15
2018-12-17T06:14:53.477Z,1.19
2018-12-17T06:17:20.957Z,1.17
2018-12-17T06:19:48.423Z,1.17
2018-12-17T06:22:15.865Z,1.17
2018-12-17T06:24:43.325Z,1.16
2018-12-17T06:27:11.368Z,1.16
2018-12-17T06:29:38.839Z,1.16
2018-12-17T06:32:06.716Z,1.21
2018-12-17T06:34:34.446Z,1.18
2018-12-17T06:37:01.883Z,1.17
2018-12-17T06:39:29.342Z,1.19
2018-12-17T06:41:56.813Z,1.15
2018-12-17T06:44:24.271Z,1.12
2018-12-17T06:46:51.714Z,1.13
2018-12-17T06:49:19.182Z,1.06
2018-12-17T06:51:46.923Z,1.04
2018-12-17T06:54:14.400Z,1.04
2018-12-17T06:56:42.430Z,1.01
2018-12-17T06:59:09.874Z,0.99
2018-12-17T07:01:37.416Z,1.02
2018-12-17T07:04:04.923Z,1.03
2018-12-17T07:06:32.392Z,1.07
2018-12-17T07:08:59.853Z,1.08
2018-12-17T07:11:27.338Z,1.07
2018-12-17T07:13:54.801Z,1.10
2018-12-17T07:16:22.265Z,1.11
2018-12-17T07:18:50.195Z,1.06
2018-12-17T07:21:17.667Z,1.06
2018-12-17T07:23:45.134Z,1.12
2018-12-17T07:26:12.600Z,1.12
2018-12-17T07:28:40.465Z,1.02
2018-12-17T07:31:07.931Z,1.03
2018-12-17T07:33:35.444Z,0.98
2018-12-17T07:36:02.892Z,0.99
2018-12-17T07:38:31.119Z,1.00
2018-12-17T07:40:58.830Z,1.02
2018-12-17T07:43:26.277Z,0.98
2018-12-17T07:45:53.789Z,1.05
2018-12-17T07:48:21.245Z,1.11
2018-12-17T07:50:48.720Z,1.14
2018-12-17T07:53:16.638Z,1.13
2018-12-17T07:55:44.088Z,1.07
2018-12-17T07:58:11.533Z,1.14
2018-12-17T08:00:39.483Z,1.16
2018-12-17T08:03:07.646Z,1.17
2018-12-17T08:05:35.956Z,1.20
2018-12-17T08:08:03.518Z,1.18
2018-12-17T08:10:30.964Z,1.19
2018-12-17T08:12:58.958Z,1.22
2018-12-17T08:15:26.431Z,1.27
2018-12-17T08:18:05.817Z,1.18
2018-12-17T08:20:35.050Z,1.16
2018-12-17T08:23:02.514Z,1.23
2018-12-17T08:25:29.980Z,1.18
2018-12-17T08:27:57.433Z,1.25
2018-12-17T08:30:24.933Z,1.30
2018-12-17T08:32:52.389Z,1.31
2018-12-17T08:35:19.852Z,1.32
2018-12-17T08:37:47.349Z,1.31
2018-12-17T08:40:14.827Z,1.36
2018-12-17T08:42:42.298Z,1.38
2018-12-17T08:45:10.754Z,1.42
2018-12-17T08:47:38.202Z,1.49
2018-12-17T08:50:05.769Z,1.53
2018-12-17T08:52:33.230Z,1.54
2018-12-17T08:55:00.794Z,1.56
2018-12-17T08:57:28.245Z,1.58
2018-12-17T08:59:55.684Z,1.59
2018-12-17T09:02:23.874Z,1.63
2018-12-17T09:04:51.351Z,1.61
2018-12-17T09:07:18.940Z,1.59
2018-12-17T09:09:46.388Z,1.60
2018-12-17T09:12:13.865Z,1.63
2018-12-17T09:14:41.342Z,1.64
2018-12-17T09:17:08.816Z,1.66
2018-12-17T09:19:36.261Z,1.70
2018-12-17T09:22:04.221Z,1.73
2018-12-17T09:24:33.265Z,1.73
2018-12-17T09:27:00.740Z,1.84
2018-12-17T09:29:28.181Z,1.94
2018-12-17T09:31:55.627Z,2.02
2018-12-17T09:34:23.112Z,2.08
2018-12-17T09:36:51.273Z,2.13
2018-12-17T09:39:18.845Z,2.20
2018-12-17T09:41:46.341Z,2.24
2018-12-17T09:44:13.816Z,2.25
2018-12-17T09:46:41.451Z,2.29
2018-12-17T09:49:08.952Z,2.34
2018-12-17T09:51:36.422Z,2.39
2018-12-17T09:54:04.513Z,2.48
2018-12-17T09:56:31.973Z,2.49
2018-12-17T09:59:02.286Z,2.51
2018-12-17T10:01:29.733Z,2.51
2018-12-17T10:03:57.211Z,2.49
2018-12-17T10:06:24.668Z,2.51
2018-12-17T10:08:52.127Z,2.50
2018-12-17T10:11:19.574Z,2.42
2018-12-17T10:13:48.587Z,2.44
2018-12-17T10:16:16.096Z,2.41
2018-12-17T10:18:43.534Z,2.44
2018-12-17T10:21:10.990Z,2.40
2018-12-17T10:23:39.297Z,2.38
2018-12-17T10:26:07.407Z,2.40
2018-12-17T10:28:34.845Z,2.43
2018-12-17T10:31:02.401Z,2.43
2018-12-17T10:33:29.855Z,2.47
2018-12-17T10:35:57.320Z,2.49
2018-12-17T10:38:27.660Z,2.45
2018-12-17T10:40:55.248Z,2.50
2018-12-17T10:43:23.166Z,2.61
2018-12-17T10:45:50.647Z,2.63
2018-12-17T10:48:18.090Z,2.72
2018-12-17T10:50:45.533Z,2.78
2018-12-17T10:53:12.991Z,2.83
2018-12-17T10:55:40.460Z,2.84
2018-12-17T10:58:07.975Z,2.88
2018-12-17T11:00:41.052Z,2.94
2018-12-17T11:03:10.453Z,3.01
2018-12-17T11:05:39.656Z,3.11
2018-12-17T11:08:07.557Z,3.18
2018-12-17T11:10:35.352Z,3.24
2018-12-17T11:13:02.806Z,3.32
2018-12-17T11:15:30.305Z,3.36
2018-12-17T11:17:58.412Z,3.39
2018-12-17T11:20:25.867Z,3.41
2018-12-17T11:22:53.324Z,3.43
2018-12-17T11:25:21.269Z,3.41
2018-12-17T11:27:48.751Z,3.43
2018-12-17T11:30:16.812Z,3.49
2018-12-17T11:32:44.292Z,3.58
2018-12-17T11:35:11.792Z,3.62
2018-12-17T11:37:39.255Z,3.66
2018-12-17T11:40:06.948Z,3.65
2018-12-17T11:42:34.445Z,3.61
2018-12-17T11:45:01.963Z,3.61
2018-12-17T11:47:29.470Z,3.62
2018-12-17T11:49:57.207Z,3.46
2018-12-17T11:52:24.762Z,3.49
2018-12-17T11:54:52.218Z,3.47
2018-12-17T11:57:31.365Z,3.44
2018-12-17T11:59:58.821Z,3.44
2018-12-17T12:02:26.269Z,3.34
2018-12-17T12:04:53.752Z,3.27
2018-12-17T12:07:21.228Z,3.29
2018-12-17T12:09:48.801Z,3.22
2018-12-17T12:12:16.298Z,3.22
2018-12-17T12:14:44.130Z,3.23
2018-12-17T12:17:11.651Z,3.30
2018-12-17T12:19:39.193Z,3.26
2018-12-17T12:22:06.691Z,3.29
2018-12-17T12:24:34.129Z,3.30
2018-12-17T12:27:02.600Z,3.28
2018-12-17T12:29:30.097Z,3.31
2018-12-17T12:31:57.633Z,3.32
2018-12-17T12:34:26.461Z,3.26
2018-12-17T12:36:54.086Z,3.25
2018-12-17T12:39:21.559Z,3.30
2018-12-17T12:41:49.126Z,3.24
2018-12-17T12:44:17.549Z,3.25
2018-12-17T12:46:45.339Z,3.31
2018-12-17T12:49:12.882Z,3.32
2018-12-17T12:51:40.380Z,3.41
2018-12-17T12:54:07.936Z,3.50
2018-12-17T12:56:37.048Z,3.55
2018-12-17T12:59:05.616Z,3.63
2018-12-17T13:01:33.139Z,3.78
2018-12-17T13:04:00.659Z,3.83
2018-12-17T13:06:28.240Z,3.91
2018-12-17T13:08:55.782Z,4.05
2018-12-17T13:11:23.675Z,4.17
2018-12-17T13:13:54.183Z,4.16
2018-12-17T13:16:21.735Z,4.10
2018-12-17T13:18:49.263Z,4.18
2018-12-17T13:21:16.859Z,4.00
2018-12-17T13:23:44.626Z,4.03
2018-12-17T13:26:12.184Z,4.02
2018-12-17T13:28:39.787Z,4.04
2018-12-17T13:31:14.382Z,4.03
2018-12-17T13:33:37.108Z,4.07
2018-12-17T13:36:04.628Z,4.03
2018-12-17T13:38:32.347Z,4.03
2018-12-17T13:41:00.026Z,3.93
2018-12-17T13:43:27.592Z,3.85
2018-12-17T13:45:55.273Z,3.82
2018-12-17T13:48:22.889Z,3.77
2018-12-17T13:50:50.987Z,3.73
2018-12-17T13:53:24.566Z,3.72
2018-12-17T13:55:52.139Z,3.75
2018-12-17T13:58:19.768Z,3.75
2018-12-17T14:00:47.356Z,3.74
2018-12-17T14:03:14.912Z,3.76
2018-12-17T14:05:42.453Z,3.80
2018-12-17T14:08:10.038Z,3.73
2018-12-17T14:10:43.241Z,3.73
2018-12-17T14:13:10.889Z,3.70
2018-12-17T14:15:44.073Z,3.71
2018-12-17T14:21:28.463Z,3.66
2018-12-17T14:23:56.023Z,3.61
2018-12-17T14:26:23.556Z,3.61
2018-12-17T14:28:51.134Z,3.60
2018-12-17T14:31:18.746Z,3.60
2018-12-17T14:33:49.416Z,3.60
2018-12-17T14:36:16.969Z,3.61
2018-12-17T14:38:44.540Z,3.63
2018-12-17T14:41:12.045Z,3.61
2018-12-17T14:43:39.776Z,3.60
2018-12-17T14:46:07.443Z,3.63
2018-12-17T14:48:35.097Z,3.63
2018-12-17T14:51:02.999Z,3.65
2018-12-17T14:53:30.621Z,3.63
2018-12-17T14:55:58.167Z,3.61
2018-12-17T14:58:25.840Z,3.59
2018-12-17T15:00:53.515Z,3.58
2018-12-17T15:03:21.184Z,3.55
2018-12-17T15:05:48.733Z,3.58
2018-12-17T15:08:16.306Z,3.56
2018-12-17T15:10:44.050Z,3.52
2018-12-17T15:13:11.611Z,3.52
2018-12-17T15:15:39.118Z,3.52
2018-12-17T15:18:07.181Z,3.51
2018-12-17T15:20:34.816Z,3.49
2018-12-17T15:23:02.447Z,3.48
2018-12-17T15:25:29.968Z,3.48
2018-12-17T15:27:57.485Z,3.46
2018-12-17T15:30:25.129Z,3.44
2018-12-17T15:32:52.656Z,3.46
2018-12-17T15:35:20.523Z,3.41
2018-12-17T15:37:48.119Z,3.38
2018-12-17T15:40:15.745Z,3.32
2018-12-17T15:42:43.213Z,3.31
2018-12-17T15:45:10.920Z,3.22
2018-12-17T15:47:39.183Z,3.18
2018-12-17T15:50:06.857Z,3.15
2018-12-17T15:52:34.448Z,3.19
2018-12-17T15:55:02.544Z,3.18
2018-12-17T15:57:30.443Z,3.21
2018-12-17T15:59:58.016Z,3.21
2018-12-17T16:02:26.595Z,3.16
2018-12-17T16:04:54.144Z,3.21
2018-12-17T16:07:21.803Z,3.25
2018-12-17T16:09:55.092Z,3.20
2018-12-17T16:12:22.777Z,3.23
2018-12-17T16:14:50.430Z,3.20
2018-12-17T16:17:18.073Z,3.21
2018-12-17T16:19:46.475Z,3.19
2018-12-17T16:22:14.062Z,3.22
2018-12-17T16:24:41.632Z,3.21
2018-12-17T16:27:10.899Z,3.20
2018-12-17T16:29:38.453Z,3.19
2018-12-17T16:32:07.454Z,3.26
2018-12-17T16:34:35.028Z,3.25
2018-12-17T16:37:03.496Z,3.25
2018-12-17T16:39:31.253Z,3.24
2018-12-17T16:41:58.900Z,3.26
2018-12-17T16:44:27.684Z,3.27
2018-12-17T16:46:55.256Z,3.32
2018-12-17T16:49:23.137Z,3.33
2018-12-17T16:51:50.748Z,3.37
2018-12-17T16:54:24.480Z,3.36
2018-12-17T16:56:52.886Z,3.37
2018-12-17T16:59:20.497Z,3.37
2018-12-17T17:01:48.052Z,3.38
2018-12-17T17:04:16.654Z,3.39
2018-12-17T17:06:44.317Z,3.40
2018-12-17T17:09:11.961Z,3.42
2018-12-17T17:11:39.612Z,3.46
2018-12-17T17:14:08.557Z,3.46
2018-12-17T17:16:36.360Z,3.48
2018-12-17T17:19:03.889Z,3.50
2018-12-17T17:21:31.495Z,3.53
2018-12-17T17:23:58.990Z,3.54
2018-12-17T17:26:26.993Z,3.56
2018-12-17T17:28:55.496Z,3.57
2018-12-17T17:31:30.434Z,3.54
2018-12-17T17:33:58.663Z,3.55
2018-12-17T17:36:27.821Z,3.55
2018-12-17T17:38:55.503Z,3.56
2018-12-17T17:41:23.056Z,3.54
2018-12-17T17:43:50.701Z,3.57
2018-12-17T17:46:18.473Z,3.57
2018-12-17T17:48:46.720Z,3.55
2018-12-17T17:51:14.397Z,3.55
2018-12-17T17:53:42.049Z,3.55
2018-12-17T17:56:09.689Z,3.53
2018-12-17T17:58:37.637Z,3.56
2018-12-17T18:01:05.251Z,3.55
2018-12-17T18:03:32.781Z,3.55
2018-12-17T18:06:01.115Z,3.56
2018-12-17T18:08:28.614Z,3.57
2018-12-17T18:10:56.298Z,3.58
2018-12-17T18:13:24.063Z,3.60
2018-12-17T18:15:51.585Z,3.65
2018-12-17T18:18:19.217Z,3.66
2018-12-17T18:20:46.753Z,3.73
2018-12-17T18:23:14.921Z,3.78
2018-12-17T18:25:42.419Z,3.79
2018-12-17T18:28:09.957Z,3.83
2018-12-17T18:30:37.481Z,3.91
2018-12-17T18:33:05.049Z,3.91
2018-12-17T18:35:32.605Z,3.91
2018-12-17T18:38:00.110Z,3.95
2018-12-17T18:40:28.348Z,3.98
2018-12-17T18:42:55.892Z,4.05
2018-12-17T18:45:23.392Z,4.14
2018-12-17T18:47:51.393Z,4.18
2018-12-17T18:50:19.028Z,4.23
2018-12-17T18:52:46.576Z,4.27
2018-12-17T18:55:14.409Z,4.34
2018-12-17T18:57:41.940Z,4.37
2018-12-17T19:00:10.592Z,4.39
2018-12-17T19:02:38.195Z,4.42
2018-12-17T19:05:06.184Z,4.42
2018-12-17T19:07:33.820Z,4.47
2018-12-17T19:10:01.609Z,4.50
2018-12-17T19:12:29.235Z,4.52
2018-12-17T19:14:57.563Z,4.54
2018-12-17T19:17:25.056Z,4.58
2018-12-17T19:19:52.640Z,4.57
2018-12-17T19:22:20.176Z,4.61
2018-12-17T19:24:49.494Z,4.61
2018-12-17T19:27:17.857Z,4.62
2018-12-17T19:29:45.438Z,4.66
2018-12-17T19:32:12.928Z,4.68
2018-12-17T19:34:40.871Z,4.73
2018-12-17T19:37:09.038Z,4.75
2018-12-17T19:39:36.615Z,4.75
2018-12-17T19:42:07.574Z,4.77
2018-12-17T19:44:36.011Z,4.76
2018-12-17T19:47:03.569Z,4.76
2018-12-17T19:49:31.130Z,4.76
2018-12-17T19:51:58.671Z,4.76
2018-12-17T19:54:26.175Z,4.77
2018-12-17T19:56:56.681Z,4.82
2018-12-17T19:59:24.336Z,4.84
2018-12-17T20:01:51.878Z,4.87
2018-12-17T20:04:19.605Z,4.87
2018-12-17T20:06:47.274Z,4.88
2018-12-17T20:09:15.099Z,4.88
2018-12-17T20:11:42.588Z,4.89
2018-12-17T20:14:10.116Z,4.91
2018-12-17T20:16:37.642Z,4.94
2018-12-17T20:19:05.216Z,4.92
2018-12-17T20:21:32.789Z,4.92
2018-12-17T20:24:00.347Z,4.94
2018-12-17T20:26:28.172Z,4.93
2018-12-17T20:28:55.739Z,4.91
2018-12-17T20:31:23.320Z,4.91
2018-12-17T20:33:51.404Z,4.91
2018-12-17T20:36:18.911Z,4.92
2018-12-17T20:38:48.120Z,4.90
2018-12-17T20:41:15.610Z,4.90
2018-12-17T20:43:43.646Z,4.91
2018-12-17T20:46:11.161Z,4.91
2018-12-17T20:48:38.686Z,4.98
2018-12-17T20:51:06.422Z,4.96
2018-12-17T20:53:33.996Z,4.98
2018-12-17T20:56:01.521Z,4.95
2018-12-17T20:58:29.894Z,4.95
2018-12-17T21:00:57.553Z,4.95
2018-12-17T21:03:26.008Z,4.96
2018-12-17T21:05:53.979Z,4.97
2018-12-17T21:08:28.379Z,4.93
2018-12-17T21:11:04.655Z,4.89
2018-12-17T21:13:32.452Z,4.93
2018-12-17T21:15:59.993Z,4.92
2018-12-17T21:18:27.551Z,4.95
2018-12-17T21:20:55.129Z,4.91
2018-12-17T21:23:23.042Z,4.92
2018-12-17T21:25:50.704Z,4.93
2018-12-17T21:28:18.828Z,4.95
2018-12-17T21:30:46.335Z,4.92
2018-12-17T21:33:13.836Z,4.92
2018-12-17T21:35:41.499Z,4.92
2018-12-17T21:38:09.314Z,4.97
2018-12-17T21:40:36.848Z,4.97
2018-12-17T21:43:04.429Z,4.98
2018-12-17T21:45:32.067Z,5.00
2018-12-17T21:47:59.608Z,4.99
2018-12-17T21:50:27.127Z,4.98
2018-12-17T21:52:54.634Z,5.01
2018-12-17T21:55:22.270Z,5.01
2018-12-17T21:57:50.900Z,5.02
2018-12-17T22:00:18.409Z,5.01
2018-12-17T22:02:45.876Z,5.00
2018-12-17T22:05:14.045Z,5.01
2018-12-17T22:07:42.243Z,5.01
2018-12-17T22:10:12.820Z,5.01
2018-12-17T22:12:40.847Z,5.02
2018-12-17T22:15:09.001Z,5.00
2018-12-17T22:17:36.478Z,5.03
2018-12-17T22:20:05.216Z,5.09
2018-12-17T22:22:32.721Z,5.02
2018-12-17T22:25:00.192Z,5.02
2018-12-17T22:27:28.355Z,5.00
2018-12-17T22:29:55.851Z,4.99
2018-12-17T22:32:23.309Z,5.00
2018-12-17T22:34:50.849Z,5.03
2018-12-17T22:37:18.361Z,5.05
2018-12-17T22:39:45.898Z,5.04
2018-12-17T22:42:14.435Z,5.01
2018-12-17T22:44:42.291Z,5.00
2018-12-17T22:47:09.963Z,5.01
2018-12-17T22:49:37.735Z,5.01
2018-12-17T22:52:05.230Z,5.05
2018-12-17T22:54:32.733Z,5.04
2018-12-17T22:57:01.202Z,5.04
2018-12-17T22:59:28.731Z,5.03
2018-12-17T23:01:56.170Z,5.05
2018-12-17T23:04:25.166Z,5.07
2018-12-17T23:06:52.752Z,5.05
2018-12-17T23:09:19.873Z,5.09
2018-12-17T23:12:06.349Z,5.04
2018-12-17T23:14:45.873Z,5.00
2018-12-17T23:17:25.479Z,5.04
2018-12-17T23:19:53.354Z,5.02
2018-12-17T23:22:20.939Z,5.10
2018-12-17T23:24:48.617Z,5.09
2018-12-17T23:27:16.173Z,5.06
2018-12-17T23:29:43.649Z,5.04
2018-12-17T23:32:11.112Z,5.08
2018-12-17T23:34:38.572Z,5.10
2018-12-17T23:37:13.030Z,5.09
2018-12-17T23:39:40.512Z,5.05
2018-12-17T23:42:07.984Z,5.06
2018-12-17T23:44:36.798Z,5.05
2018-12-17T23:47:04.363Z,5.07
2018-12-17T23:49:31.848Z,5.06
2018-12-17T23:51:59.381Z,5.03
2018-12-17T23:54:26.967Z,5.08
2018-12-17T23:56:54.504Z,5.10
2018-12-17T23:59:21.948Z,5.09
